sensor_id;sensor_type;location;lat;lon;timestamp;P1;durP1;ratioP1;P2;durP2;ratioP2
18360;SDS011;9308;48.550;9.108;2022-08-21T00:01:21;4.47;;;4.27;;
18360;SDS011;9308;48.550;9.108;2022-08-21T00:03:50;4.60;;;4.33;;
18360;SDS011;9308;48.550;9.108;2022-08-21T00:06:15;5.07;;;4.67;;
18360;SDS011;9308;48.550;9.108;2022-08-21T00:08:41;4.43;;;4.03;;
18360;SDS011;9308;48.550;9.108;2022-08-21T00:11:08;4.83;;;4.43;;
18360;SDS011;9308;48.550;9.108;2022-08-21T00:13:34;4.67;;;4.37;;
18360;SDS011;9308;48.550;9.108;2022-08-21T00:16:00;4.47;;;4.17;;
18360;SDS011;9308;48.550;9.108;2022-08-21T00:18:26;5.40;;;5.00;;
18360;SDS011;9308;48.550;9.108;2022-08-21T00:20:52;4.90;;;4.60;;
18360;SDS011;9308;48.550;9.108;2022-08-21T00:23:17;4.07;;;3.87;;
18360;SDS011;9308;48.550;9.108;2022-08-21T00:25:43;4.53;;;4.23;;
18360;SDS011;9308;48.550;9.108;2022-08-21T00:28:10;4.93;;;4.63;;
18360;SDS011;9308;48.550;9.108;2022-08-21T00:30:37;4.70;;;4.23;;
18360;SDS011;9308;48.550;9.108;2022-08-21T00:33:04;4.93;;;4.53;;
18360;SDS011;9308;48.550;9.108;2022-08-21T00:35:32;5.57;;;5.07;;
18360;SDS011;9308;48.550;9.108;2022-08-21T00:37:59;4.73;;;4.30;;
18360;SDS011;9308;48.550;9.108;2022-08-21T00:40:30;4.47;;;4.17;;
18360;SDS011;9308;48.550;9.108;2022-08-21T00:43:03;4.60;;;4.30;;
18360;SDS011;9308;48.550;9.108;2022-08-21T00:45:29;5.53;;;5.13;;
18360;SDS011;9308;48.550;9.108;2022-08-21T00:47:55;5.43;;;4.77;;
18360;SDS011;9308;48.550;9.108;2022-08-21T00:50:20;5.47;;;5.07;;
18360;SDS011;9308;48.550;9.108;2022-08-21T00:52:47;4.73;;;4.43;;
18360;SDS011;9308;48.550;9.108;2022-08-21T00:55:12;5.77;;;5.27;;
18360;SDS011;9308;48.550;9.108;2022-08-21T00:57:40;5.00;;;4.70;;
18360;SDS011;9308;48.550;9.108;2022-08-21T01:00:12;5.10;;;4.50;;
18360;SDS011;9308;48.550;9.108;2022-08-21T01:02:41;5.03;;;4.73;;
18360;SDS011;9308;48.550;9.108;2022-08-21T01:05:07;5.30;;;4.90;;
18360;SDS011;9308;48.550;9.108;2022-08-21T01:07:33;5.00;;;4.60;;
18360;SDS011;9308;48.550;9.108;2022-08-21T01:09:59;5.13;;;4.70;;
18360;SDS011;9308;48.550;9.108;2022-08-21T01:12:25;5.17;;;4.87;;
18360;SDS011;9308;48.550;9.108;2022-08-21T01:14:51;5.07;;;4.67;;
18360;SDS011;9308;48.550;9.108;2022-08-21T01:17:16;5.23;;;4.87;;
18360;SDS011;9308;48.550;9.108;2022-08-21T01:19:42;5.10;;;4.80;;
18360;SDS011;9308;48.550;9.108;2022-08-21T01:22:08;5.40;;;4.90;;
18360;SDS011;9308;48.550;9.108;2022-08-21T01:24:34;5.07;;;4.67;;
18360;SDS011;9308;48.550;9.108;2022-08-21T01:27:00;5.23;;;4.87;;
18360;SDS011;9308;48.550;9.108;2022-08-21T01:31:57;5.27;;;4.87;;
18360;SDS011;9308;48.550;9.108;2022-08-21T01:34:24;5.07;;;4.77;;
18360;SDS011;9308;48.550;9.108;2022-08-21T01:36:50;5.30;;;4.90;;
18360;SDS011;9308;48.550;9.108;2022-08-21T01:39:16;5.23;;;4.83;;
18360;SDS011;9308;48.550;9.108;2022-08-21T01:41:42;6.93;;;5.27;;
18360;SDS011;9308;48.550;9.108;2022-08-21T01:44:07;5.27;;;4.80;;
18360;SDS011;9308;48.550;9.108;2022-08-21T01:46:33;4.97;;;4.50;;
18360;SDS011;9308;48.550;9.108;2022-08-21T01:48:58;5.30;;;5.00;;
18360;SDS011;9308;48.550;9.108;2022-08-21T01:51:24;5.27;;;4.87;;
18360;SDS011;9308;48.550;9.108;2022-08-21T01:53:50;5.33;;;4.90;;
18360;SDS011;9308;48.550;9.108;2022-08-21T01:56:16;5.50;;;5.10;;
18360;SDS011;9308;48.550;9.108;2022-08-21T01:58:42;5.43;;;5.03;;
18360;SDS011;9308;48.550;9.108;2022-08-21T02:01:09;5.60;;;5.10;;
18360;SDS011;9308;48.550;9.108;2022-08-21T02:03:34;5.97;;;5.43;;
18360;SDS011;9308;48.550;9.108;2022-08-21T02:06:00;4.40;;;4.10;;
18360;SDS011;9308;48.550;9.108;2022-08-21T02:08:27;5.47;;;4.90;;
18360;SDS011;9308;48.550;9.108;2022-08-21T02:10:53;4.83;;;4.53;;
18360;SDS011;9308;48.550;9.108;2022-08-21T02:13:18;5.67;;;5.17;;
18360;SDS011;9308;48.550;9.108;2022-08-21T02:15:44;5.37;;;5.03;;
18360;SDS011;9308;48.550;9.108;2022-08-21T02:18:10;5.70;;;5.30;;
18360;SDS011;9308;48.550;9.108;2022-08-21T02:20:37;5.37;;;4.97;;
18360;SDS011;9308;48.550;9.108;2022-08-21T02:23:05;5.40;;;4.97;;
18360;SDS011;9308;48.550;9.108;2022-08-21T02:25:32;5.03;;;4.63;;
18360;SDS011;9308;48.550;9.108;2022-08-21T02:27:59;5.20;;;4.70;;
18360;SDS011;9308;48.550;9.108;2022-08-21T02:30:32;4.97;;;4.57;;
18360;SDS011;9308;48.550;9.108;2022-08-21T02:33:00;5.70;;;5.30;;
18360;SDS011;9308;48.550;9.108;2022-08-21T02:35:26;5.97;;;4.80;;
18360;SDS011;9308;48.550;9.108;2022-08-21T02:37:54;5.70;;;5.37;;
18360;SDS011;9308;48.550;9.108;2022-08-21T02:40:23;6.10;;;5.50;;
18360;SDS011;9308;48.550;9.108;2022-08-21T02:42:51;5.33;;;4.80;;
18360;SDS011;9308;48.550;9.108;2022-08-21T02:45:17;5.50;;;5.03;;
18360;SDS011;9308;48.550;9.108;2022-08-21T02:47:49;5.40;;;5.00;;
18360;SDS011;9308;48.550;9.108;2022-08-21T02:50:20;5.40;;;5.00;;
18360;SDS011;9308;48.550;9.108;2022-08-21T02:52:47;6.07;;;5.67;;
18360;SDS011;9308;48.550;9.108;2022-08-21T02:55:13;5.80;;;4.80;;
18360;SDS011;9308;48.550;9.108;2022-08-21T02:57:38;5.00;;;4.60;;
18360;SDS011;9308;48.550;9.108;2022-08-21T03:00:04;9.60;;;5.20;;
18360;SDS011;9308;48.550;9.108;2022-08-21T03:02:30;5.90;;;5.50;;
18360;SDS011;9308;48.550;9.108;2022-08-21T03:04:56;5.20;;;4.80;;
18360;SDS011;9308;48.550;9.108;2022-08-21T03:07:21;5.63;;;5.13;;
18360;SDS011;9308;48.550;9.108;2022-08-21T03:09:47;6.03;;;5.53;;
18360;SDS011;9308;48.550;9.108;2022-08-21T03:12:12;6.70;;;6.10;;
18360;SDS011;9308;48.550;9.108;2022-08-21T03:14:37;6.17;;;5.67;;
18360;SDS011;9308;48.550;9.108;2022-08-21T03:17:04;6.07;;;5.57;;
18360;SDS011;9308;48.550;9.108;2022-08-21T03:19:29;6.13;;;5.63;;
18360;SDS011;9308;48.550;9.108;2022-08-21T03:21:55;6.63;;;6.13;;
18360;SDS011;9308;48.550;9.108;2022-08-21T03:24:20;6.90;;;6.30;;
18360;SDS011;9308;48.550;9.108;2022-08-21T03:26:46;7.00;;;6.43;;
18360;SDS011;9308;48.550;9.108;2022-08-21T03:29:11;7.03;;;6.50;;
18360;SDS011;9308;48.550;9.108;2022-08-21T03:31:37;7.47;;;6.77;;
18360;SDS011;9308;48.550;9.108;2022-08-21T03:34:02;6.70;;;6.30;;
18360;SDS011;9308;48.550;9.108;2022-08-21T03:36:28;7.17;;;6.67;;
18360;SDS011;9308;48.550;9.108;2022-08-21T03:38:54;7.20;;;6.70;;
18360;SDS011;9308;48.550;9.108;2022-08-21T03:41:19;7.27;;;6.67;;
18360;SDS011;9308;48.550;9.108;2022-08-21T03:43:46;6.73;;;6.20;;
18360;SDS011;9308;48.550;9.108;2022-08-21T03:46:11;7.20;;;6.13;;
18360;SDS011;9308;48.550;9.108;2022-08-21T03:48:38;7.17;;;6.67;;
18360;SDS011;9308;48.550;9.108;2022-08-21T03:51:04;6.97;;;6.57;;
18360;SDS011;9308;48.550;9.108;2022-08-21T03:53:31;7.07;;;6.57;;
18360;SDS011;9308;48.550;9.108;2022-08-21T03:55:57;8.37;;;6.40;;
18360;SDS011;9308;48.550;9.108;2022-08-21T03:58:23;6.87;;;6.30;;
18360;SDS011;9308;48.550;9.108;2022-08-21T04:00:52;7.53;;;6.93;;
18360;SDS011;9308;48.550;9.108;2022-08-21T04:03:19;7.23;;;6.27;;
18360;SDS011;9308;48.550;9.108;2022-08-21T04:05:45;6.83;;;6.33;;
18360;SDS011;9308;48.550;9.108;2022-08-21T04:08:11;6.80;;;6.33;;
18360;SDS011;9308;48.550;9.108;2022-08-21T04:10:38;6.70;;;6.13;;
18360;SDS011;9308;48.550;9.108;2022-08-21T04:13:05;7.63;;;6.93;;
18360;SDS011;9308;48.550;9.108;2022-08-21T04:15:32;6.50;;;6.03;;
18360;SDS011;9308;48.550;9.108;2022-08-21T04:17:59;6.57;;;6.07;;
18360;SDS011;9308;48.550;9.108;2022-08-21T04:20:25;6.80;;;6.30;;
18360;SDS011;9308;48.550;9.108;2022-08-21T04:22:51;6.77;;;6.17;;
18360;SDS011;9308;48.550;9.108;2022-08-21T04:25:17;6.73;;;6.23;;
18360;SDS011;9308;48.550;9.108;2022-08-21T04:27:44;6.13;;;5.53;;
18360;SDS011;9308;48.550;9.108;2022-08-21T04:30:11;7.03;;;6.53;;
18360;SDS011;9308;48.550;9.108;2022-08-21T04:32:38;6.43;;;5.90;;
18360;SDS011;9308;48.550;9.108;2022-08-21T04:35:08;7.23;;;6.70;;
18360;SDS011;9308;48.550;9.108;2022-08-21T04:37:35;7.13;;;6.60;;
18360;SDS011;9308;48.550;9.108;2022-08-21T04:40:02;7.30;;;6.60;;
18360;SDS011;9308;48.550;9.108;2022-08-21T04:42:28;7.43;;;6.93;;
18360;SDS011;9308;48.550;9.108;2022-08-21T04:44:54;7.43;;;6.83;;
18360;SDS011;9308;48.550;9.108;2022-08-21T04:47:21;8.20;;;7.50;;
18360;SDS011;9308;48.550;9.108;2022-08-21T04:49:47;7.20;;;6.60;;
18360;SDS011;9308;48.550;9.108;2022-08-21T04:52:13;7.80;;;7.10;;
18360;SDS011;9308;48.550;9.108;2022-08-21T04:54:41;6.20;;;5.70;;
18360;SDS011;9308;48.550;9.108;2022-08-21T04:57:10;6.57;;;6.10;;
18360;SDS011;9308;48.550;9.108;2022-08-21T04:59:38;6.27;;;5.80;;
18360;SDS011;9308;48.550;9.108;2022-08-21T05:02:08;6.17;;;5.70;;
18360;SDS011;9308;48.550;9.108;2022-08-21T05:04:36;7.10;;;6.60;;
18360;SDS011;9308;48.550;9.108;2022-08-21T05:07:06;7.53;;;6.53;;
18360;SDS011;9308;48.550;9.108;2022-08-21T05:09:37;6.80;;;6.30;;
18360;SDS011;9308;48.550;9.108;2022-08-21T05:12:03;6.87;;;6.27;;
18360;SDS011;9308;48.550;9.108;2022-08-21T05:14:29;6.63;;;6.03;;
18360;SDS011;9308;48.550;9.108;2022-08-21T05:16:55;6.50;;;5.93;;
18360;SDS011;9308;48.550;9.108;2022-08-21T05:19:21;7.23;;;6.20;;
18360;SDS011;9308;48.550;9.108;2022-08-21T05:21:46;6.90;;;6.30;;
18360;SDS011;9308;48.550;9.108;2022-08-21T05:24:15;6.70;;;6.20;;
18360;SDS011;9308;48.550;9.108;2022-08-21T05:26:41;6.57;;;5.50;;
18360;SDS011;9308;48.550;9.108;2022-08-21T05:29:06;6.53;;;5.50;;
18360;SDS011;9308;48.550;9.108;2022-08-21T05:31:32;6.00;;;5.53;;
18360;SDS011;9308;48.550;9.108;2022-08-21T05:33:58;6.33;;;5.77;;
18360;SDS011;9308;48.550;9.108;2022-08-21T05:36:23;6.20;;;5.70;;
18360;SDS011;9308;48.550;9.108;2022-08-21T05:38:49;6.77;;;6.17;;
18360;SDS011;9308;48.550;9.108;2022-08-21T05:41:14;6.80;;;6.27;;
18360;SDS011;9308;48.550;9.108;2022-08-21T05:43:40;6.70;;;6.20;;
18360;SDS011;9308;48.550;9.108;2022-08-21T05:46:06;5.80;;;5.30;;
18360;SDS011;9308;48.550;9.108;2022-08-21T05:48:32;6.03;;;5.40;;
18360;SDS011;9308;48.550;9.108;2022-08-21T05:51:04;5.93;;;5.50;;
18360;SDS011;9308;48.550;9.108;2022-08-21T05:53:31;7.47;;;6.77;;
18360;SDS011;9308;48.550;9.108;2022-08-21T05:55:57;6.90;;;6.40;;
18360;SDS011;9308;48.550;9.108;2022-08-21T05:58:22;7.17;;;6.57;;
18360;SDS011;9308;48.550;9.108;2022-08-21T06:00:49;6.47;;;5.83;;
18360;SDS011;9308;48.550;9.108;2022-08-21T06:03:17;6.50;;;6.00;;
18360;SDS011;9308;48.550;9.108;2022-08-21T06:05:45;5.80;;;5.30;;
18360;SDS011;9308;48.550;9.108;2022-08-21T06:08:11;6.87;;;6.27;;
18360;SDS011;9308;48.550;9.108;2022-08-21T06:10:38;7.20;;;6.70;;
18360;SDS011;9308;48.550;9.108;2022-08-21T06:13:03;6.57;;;6.07;;
18360;SDS011;9308;48.550;9.108;2022-08-21T06:15:29;6.50;;;6.00;;
18360;SDS011;9308;48.550;9.108;2022-08-21T06:17:55;6.77;;;6.27;;
18360;SDS011;9308;48.550;9.108;2022-08-21T06:20:20;7.27;;;6.70;;
18360;SDS011;9308;48.550;9.108;2022-08-21T06:22:46;6.70;;;6.30;;
18360;SDS011;9308;48.550;9.108;2022-08-21T06:25:12;7.17;;;6.57;;
18360;SDS011;9308;48.550;9.108;2022-08-21T06:27:37;6.13;;;5.70;;
18360;SDS011;9308;48.550;9.108;2022-08-21T06:30:04;6.90;;;6.40;;
18360;SDS011;9308;48.550;9.108;2022-08-21T06:32:30;6.50;;;6.00;;
18360;SDS011;9308;48.550;9.108;2022-08-21T06:34:56;6.30;;;5.77;;
18360;SDS011;9308;48.550;9.108;2022-08-21T06:37:21;7.23;;;6.63;;
18360;SDS011;9308;48.550;9.108;2022-08-21T06:39:47;5.87;;;5.47;;
18360;SDS011;9308;48.550;9.108;2022-08-21T06:42:14;6.57;;;6.07;;
18360;SDS011;9308;48.550;9.108;2022-08-21T06:44:40;6.20;;;5.80;;
18360;SDS011;9308;48.550;9.108;2022-08-21T06:47:06;6.20;;;5.80;;
18360;SDS011;9308;48.550;9.108;2022-08-21T06:49:31;10.03;;;6.20;;
18360;SDS011;9308;48.550;9.108;2022-08-21T06:51:57;5.77;;;5.27;;
18360;SDS011;9308;48.550;9.108;2022-08-21T06:54:22;6.60;;;5.80;;
18360;SDS011;9308;48.550;9.108;2022-08-21T06:56:47;6.60;;;6.03;;
18360;SDS011;9308;48.550;9.108;2022-08-21T06:59:13;6.47;;;6.00;;
18360;SDS011;9308;48.550;9.108;2022-08-21T07:01:39;6.00;;;5.40;;
18360;SDS011;9308;48.550;9.108;2022-08-21T07:04:04;6.23;;;5.73;;
18360;SDS011;9308;48.550;9.108;2022-08-21T07:06:30;6.03;;;5.53;;
18360;SDS011;9308;48.550;9.108;2022-08-21T07:08:55;6.27;;;5.87;;
18360;SDS011;9308;48.550;9.108;2022-08-21T07:11:22;6.43;;;5.90;;
18360;SDS011;9308;48.550;9.108;2022-08-21T07:13:48;5.73;;;5.27;;
18360;SDS011;9308;48.550;9.108;2022-08-21T07:16:16;5.53;;;5.20;;
18360;SDS011;9308;48.550;9.108;2022-08-21T07:18:41;5.40;;;5.00;;
18360;SDS011;9308;48.550;9.108;2022-08-21T07:21:07;5.60;;;5.20;;
18360;SDS011;9308;48.550;9.108;2022-08-21T07:23:36;5.73;;;5.30;;
18360;SDS011;9308;48.550;9.108;2022-08-21T07:26:03;5.73;;;5.20;;
18360;SDS011;9308;48.550;9.108;2022-08-21T07:28:29;6.20;;;5.00;;
18360;SDS011;9308;48.550;9.108;2022-08-21T07:30:56;5.80;;;5.30;;
18360;SDS011;9308;48.550;9.108;2022-08-21T07:33:23;5.90;;;5.30;;
18360;SDS011;9308;48.550;9.108;2022-08-21T07:35:50;5.50;;;5.03;;
18360;SDS011;9308;48.550;9.108;2022-08-21T07:38:15;5.83;;;5.37;;
18360;SDS011;9308;48.550;9.108;2022-08-21T07:40:41;5.40;;;4.90;;
18360;SDS011;9308;48.550;9.108;2022-08-21T07:43:07;5.30;;;4.90;;
18360;SDS011;9308;48.550;9.108;2022-08-21T07:45:33;4.97;;;4.67;;
18360;SDS011;9308;48.550;9.108;2022-08-21T07:47:58;5.20;;;4.70;;
18360;SDS011;9308;48.550;9.108;2022-08-21T07:50:24;5.47;;;5.07;;
18360;SDS011;9308;48.550;9.108;2022-08-21T07:52:50;5.27;;;4.87;;
18360;SDS011;9308;48.550;9.108;2022-08-21T07:55:16;6.00;;;4.93;;
18360;SDS011;9308;48.550;9.108;2022-08-21T07:57:44;5.77;;;5.27;;
18360;SDS011;9308;48.550;9.108;2022-08-21T08:00:11;5.87;;;5.30;;
18360;SDS011;9308;48.550;9.108;2022-08-21T08:02:47;6.60;;;5.20;;
18360;SDS011;9308;48.550;9.108;2022-08-21T08:05:15;7.00;;;5.73;;
18360;SDS011;9308;48.550;9.108;2022-08-21T08:07:42;6.10;;;5.23;;
18360;SDS011;9308;48.550;9.108;2022-08-21T08:10:08;5.80;;;5.23;;
18360;SDS011;9308;48.550;9.108;2022-08-21T08:12:35;6.03;;;5.37;;
18360;SDS011;9308;48.550;9.108;2022-08-21T08:15:03;6.13;;;5.63;;
18360;SDS011;9308;48.550;9.108;2022-08-21T08:17:32;5.57;;;5.07;;
18360;SDS011;9308;48.550;9.108;2022-08-21T08:19:58;4.97;;;4.37;;
18360;SDS011;9308;48.550;9.108;2022-08-21T08:22:27;5.93;;;5.40;;
18360;SDS011;9308;48.550;9.108;2022-08-21T08:24:53;6.17;;;5.00;;
18360;SDS011;9308;48.550;9.108;2022-08-21T08:27:19;6.00;;;5.60;;
18360;SDS011;9308;48.550;9.108;2022-08-21T08:29:45;4.97;;;4.57;;
18360;SDS011;9308;48.550;9.108;2022-08-21T08:32:11;5.60;;;5.10;;
18360;SDS011;9308;48.550;9.108;2022-08-21T08:34:37;5.20;;;4.80;;
18360;SDS011;9308;48.550;9.108;2022-08-21T08:37:04;6.03;;;4.70;;
18360;SDS011;9308;48.550;9.108;2022-08-21T08:39:30;6.67;;;5.50;;
18360;SDS011;9308;48.550;9.108;2022-08-21T08:41:58;5.77;;;5.27;;
18360;SDS011;9308;48.550;9.108;2022-08-21T08:44:30;5.03;;;4.60;;
18360;SDS011;9308;48.550;9.108;2022-08-21T08:46:55;8.13;;;5.30;;
18360;SDS011;9308;48.550;9.108;2022-08-21T08:49:24;8.30;;;5.83;;
18360;SDS011;9308;48.550;9.108;2022-08-21T08:54:44;5.67;;;5.10;;
18360;SDS011;9308;48.550;9.108;2022-08-21T08:57:15;5.73;;;5.00;;
18360;SDS011;9308;48.550;9.108;2022-08-21T08:59:43;5.63;;;5.07;;
18360;SDS011;9308;48.550;9.108;2022-08-21T09:02:14;7.27;;;5.70;;
18360;SDS011;9308;48.550;9.108;2022-08-21T09:04:41;5.73;;;5.20;;
18360;SDS011;9308;48.550;9.108;2022-08-21T09:09:55;5.43;;;4.93;;
18360;SDS011;9308;48.550;9.108;2022-08-21T09:15:42;6.00;;;4.77;;
18360;SDS011;9308;48.550;9.108;2022-08-21T09:18:20;5.70;;;5.10;;
18360;SDS011;9308;48.550;9.108;2022-08-21T09:26:20;7.63;;;5.80;;
18360;SDS011;9308;48.550;9.108;2022-08-21T09:28:53;5.60;;;4.83;;
18360;SDS011;9308;48.550;9.108;2022-08-21T09:31:29;7.53;;;5.33;;
18360;SDS011;9308;48.550;9.108;2022-08-21T09:34:04;5.60;;;4.47;;
18360;SDS011;9308;48.550;9.108;2022-08-21T09:39:06;4.93;;;4.40;;
18360;SDS011;9308;48.550;9.108;2022-08-21T09:41:33;5.90;;;5.40;;
18360;SDS011;9308;48.550;9.108;2022-08-21T09:44:03;4.97;;;4.50;;
18360;SDS011;9308;48.550;9.108;2022-08-21T09:46:31;4.47;;;4.10;;
18360;SDS011;9308;48.550;9.108;2022-08-21T09:48:58;9.10;;;4.80;;
18360;SDS011;9308;48.550;9.108;2022-08-21T09:51:30;6.83;;;4.70;;
18360;SDS011;9308;48.550;9.108;2022-08-21T09:56:34;5.70;;;4.70;;
18360;SDS011;9308;48.550;9.108;2022-08-21T09:59:30;6.53;;;4.53;;
18360;SDS011;9308;48.550;9.108;2022-08-21T10:01:58;6.83;;;4.47;;
18360;SDS011;9308;48.550;9.108;2022-08-21T10:04:28;5.97;;;4.93;;
18360;SDS011;9308;48.550;9.108;2022-08-21T10:07:09;4.80;;;4.40;;
18360;SDS011;9308;48.550;9.108;2022-08-21T10:09:36;4.77;;;4.37;;
18360;SDS011;9308;48.550;9.108;2022-08-21T10:14:43;5.20;;;4.57;;
18360;SDS011;9308;48.550;9.108;2022-08-21T10:17:17;8.27;;;4.60;;
18360;SDS011;9308;48.550;9.108;2022-08-21T10:25:37;4.93;;;4.43;;
18360;SDS011;9308;48.550;9.108;2022-08-21T10:28:11;4.30;;;3.90;;
18360;SDS011;9308;48.550;9.108;2022-08-21T10:30:58;4.67;;;4.10;;
18360;SDS011;9308;48.550;9.108;2022-08-21T10:36:21;4.90;;;4.00;;
18360;SDS011;9308;48.550;9.108;2022-08-21T10:47:02;4.30;;;3.70;;
18360;SDS011;9308;48.550;9.108;2022-08-21T10:52:09;4.30;;;3.73;;
18360;SDS011;9308;48.550;9.108;2022-08-21T10:54:59;4.77;;;3.90;;
18360;SDS011;9308;48.550;9.108;2022-08-21T10:58:02;4.67;;;3.90;;
18360;SDS011;9308;48.550;9.108;2022-08-21T11:00:23;4.70;;;4.10;;
18360;SDS011;9308;48.550;9.108;2022-08-21T11:03:07;4.10;;;3.70;;
18360;SDS011;9308;48.550;9.108;2022-08-21T11:06:16;6.93;;;3.47;;
18360;SDS011;9308;48.550;9.108;2022-08-21T11:08:49;4.10;;;3.77;;
18360;SDS011;9308;48.550;9.108;2022-08-21T11:11:24;3.90;;;3.57;;
18360;SDS011;9308;48.550;9.108;2022-08-21T11:13:56;6.87;;;3.70;;
18360;SDS011;9308;48.550;9.108;2022-08-21T11:16:41;4.20;;;3.80;;
18360;SDS011;9308;48.550;9.108;2022-08-21T11:19:15;4.63;;;3.57;;
18360;SDS011;9308;48.550;9.108;2022-08-21T11:22:00;3.80;;;3.50;;
18360;SDS011;9308;48.550;9.108;2022-08-21T11:24:42;3.47;;;2.73;;
18360;SDS011;9308;48.550;9.108;2022-08-21T11:27:28;6.37;;;3.23;;
18360;SDS011;9308;48.550;9.108;2022-08-21T11:30:05;4.30;;;3.10;;
18360;SDS011;9308;48.550;9.108;2022-08-21T11:32:49;3.33;;;3.00;;
18360;SDS011;9308;48.550;9.108;2022-08-21T11:38:11;3.50;;;3.20;;
18360;SDS011;9308;48.550;9.108;2022-08-21T11:41:11;3.17;;;2.87;;
18360;SDS011;9308;48.550;9.108;2022-08-21T11:43:47;2.83;;;2.63;;
18360;SDS011;9308;48.550;9.108;2022-08-21T11:49:06;2.80;;;2.60;;
18360;SDS011;9308;48.550;9.108;2022-08-21T11:55:11;3.03;;;2.80;;
18360;SDS011;9308;48.550;9.108;2022-08-21T12:03:09;3.53;;;2.83;;
18360;SDS011;9308;48.550;9.108;2022-08-21T12:05:39;2.80;;;2.53;;
18360;SDS011;9308;48.550;9.108;2022-08-21T12:11:20;3.43;;;3.10;;
18360;SDS011;9308;48.550;9.108;2022-08-21T12:13:55;3.07;;;2.87;;
18360;SDS011;9308;48.550;9.108;2022-08-21T12:16:36;2.93;;;2.73;;
18360;SDS011;9308;48.550;9.108;2022-08-21T12:19:10;2.73;;;2.53;;
18360;SDS011;9308;48.550;9.108;2022-08-21T12:21:54;2.90;;;2.60;;
18360;SDS011;9308;48.550;9.108;2022-08-21T12:30:02;3.17;;;2.97;;
18360;SDS011;9308;48.550;9.108;2022-08-21T12:32:43;3.50;;;3.20;;
18360;SDS011;9308;48.550;9.108;2022-08-21T12:35:13;3.30;;;3.00;;
18360;SDS011;9308;48.550;9.108;2022-08-21T12:37:46;3.25;;;3.00;;
18360;SDS011;9308;48.550;9.108;2022-08-21T12:42:43;3.45;;;3.25;;
18360;SDS011;9308;48.550;9.108;2022-08-21T12:45:17;3.15;;;2.95;;
18360;SDS011;9308;48.550;9.108;2022-08-21T12:47:48;3.40;;;2.70;;
18360;SDS011;9308;48.550;9.108;2022-08-21T12:50:20;2.90;;;2.70;;
18360;SDS011;9308;48.550;9.108;2022-08-21T12:52:57;3.03;;;2.83;;
18360;SDS011;9308;48.550;9.108;2022-08-21T12:55:30;3.30;;;3.00;;
18360;SDS011;9308;48.550;9.108;2022-08-21T12:57:57;3.10;;;2.80;;
18360;SDS011;9308;48.550;9.108;2022-08-21T13:00:24;3.33;;;3.00;;
18360;SDS011;9308;48.550;9.108;2022-08-21T13:02:51;3.50;;;3.20;;
18360;SDS011;9308;48.550;9.108;2022-08-21T13:05:23;3.80;;;2.75;;
18360;SDS011;9308;48.550;9.108;2022-08-21T13:07:49;3.88;;;3.50;;
18360;SDS011;9308;48.550;9.108;2022-08-21T13:10:20;3.45;;;3.25;;
18360;SDS011;9308;48.550;9.108;2022-08-21T13:12:50;3.17;;;2.97;;
18360;SDS011;9308;48.550;9.108;2022-08-21T13:15:21;3.50;;;3.20;;
18360;SDS011;9308;48.550;9.108;2022-08-21T13:17:53;2.90;;;2.80;;
18360;SDS011;9308;48.550;9.108;2022-08-21T13:20:20;4.55;;;3.50;;
18360;SDS011;9308;48.550;9.108;2022-08-21T13:22:48;3.30;;;3.10;;
18360;SDS011;9308;48.550;9.108;2022-08-21T13:25:14;4.18;;;3.60;;
18360;SDS011;9308;48.550;9.108;2022-08-21T13:27:42;3.42;;;3.22;;
18360;SDS011;9308;48.550;9.108;2022-08-21T13:30:14;3.47;;;3.28;;
18360;SDS011;9308;48.550;9.108;2022-08-21T13:32:46;3.22;;;3.08;;
18360;SDS011;9308;48.550;9.108;2022-08-21T13:35:17;3.90;;;3.70;;
18360;SDS011;9308;48.550;9.108;2022-08-21T13:37:46;3.90;;;3.70;;
18360;SDS011;9308;48.550;9.108;2022-08-21T13:40:14;3.70;;;3.50;;
18360;SDS011;9308;48.550;9.108;2022-08-21T13:42:43;3.63;;;3.38;;
18360;SDS011;9308;48.550;9.108;2022-08-21T13:45:11;4.00;;;3.70;;
18360;SDS011;9308;48.550;9.108;2022-08-21T13:47:39;3.15;;;2.88;;
18360;SDS011;9308;48.550;9.108;2022-08-21T13:50:05;3.40;;;3.10;;
18360;SDS011;9308;48.550;9.108;2022-08-21T13:52:32;2.70;;;2.50;;
18360;SDS011;9308;48.550;9.108;2022-08-21T13:55:08;3.47;;;3.17;;
18360;SDS011;9308;48.550;9.108;2022-08-21T13:57:37;3.37;;;3.07;;
18360;SDS011;9308;48.550;9.108;2022-08-21T14:00:19;2.70;;;2.50;;
18360;SDS011;9308;48.550;9.108;2022-08-21T14:02:51;3.30;;;3.00;;
18360;SDS011;9308;48.550;9.108;2022-08-21T14:05:22;3.23;;;3.03;;
18360;SDS011;9308;48.550;9.108;2022-08-21T14:07:52;3.60;;;3.10;;
18360;SDS011;9308;48.550;9.108;2022-08-21T14:10:26;3.17;;;2.97;;
18360;SDS011;9308;48.550;9.108;2022-08-21T14:13:01;3.23;;;3.03;;
18360;SDS011;9308;48.550;9.108;2022-08-21T14:15:30;3.93;;;3.63;;
18360;SDS011;9308;48.550;9.108;2022-08-21T14:18:13;4.57;;;3.00;;
18360;SDS011;9308;48.550;9.108;2022-08-21T14:20:41;4.00;;;3.17;;
18360;SDS011;9308;48.550;9.108;2022-08-21T14:23:07;3.57;;;3.03;;
18360;SDS011;9308;48.550;9.108;2022-08-21T14:25:37;3.73;;;3.43;;
18360;SDS011;9308;48.550;9.108;2022-08-21T14:30:50;3.07;;;2.87;;
18360;SDS011;9308;48.550;9.108;2022-08-21T14:33:18;3.57;;;3.27;;
18360;SDS011;9308;48.550;9.108;2022-08-21T14:35:50;3.60;;;3.20;;
18360;SDS011;9308;48.550;9.108;2022-08-21T14:38:16;3.27;;;2.97;;
18360;SDS011;9308;48.550;9.108;2022-08-21T14:40:44;4.10;;;3.20;;
18360;SDS011;9308;48.550;9.108;2022-08-21T14:43:13;3.50;;;3.20;;
18360;SDS011;9308;48.550;9.108;2022-08-21T14:45:39;4.93;;;3.70;;
18360;SDS011;9308;48.550;9.108;2022-08-21T14:48:05;3.40;;;2.80;;
18360;SDS011;9308;48.550;9.108;2022-08-21T14:50:32;3.50;;;3.20;;
18360;SDS011;9308;48.550;9.108;2022-08-21T14:52:57;3.30;;;3.10;;
18360;SDS011;9308;48.550;9.108;2022-08-21T14:55:23;4.13;;;3.47;;
18360;SDS011;9308;48.550;9.108;2022-08-21T14:57:49;4.23;;;3.80;;
18360;SDS011;9308;48.550;9.108;2022-08-21T15:00:19;3.40;;;3.10;;
18360;SDS011;9308;48.550;9.108;2022-08-21T15:02:48;3.50;;;3.20;;
18360;SDS011;9308;48.550;9.108;2022-08-21T15:05:14;3.77;;;3.50;;
18360;SDS011;9308;48.550;9.108;2022-08-21T15:07:40;3.60;;;3.30;;
18360;SDS011;9308;48.550;9.108;2022-08-21T15:10:06;3.10;;;2.80;;
18360;SDS011;9308;48.550;9.108;2022-08-21T15:12:32;3.70;;;3.40;;
18360;SDS011;9308;48.550;9.108;2022-08-21T15:14:57;4.07;;;3.67;;
18360;SDS011;9308;48.550;9.108;2022-08-21T15:17:23;4.20;;;3.27;;
18360;SDS011;9308;48.550;9.108;2022-08-21T15:19:49;3.60;;;3.30;;
18360;SDS011;9308;48.550;9.108;2022-08-21T15:22:14;3.57;;;3.20;;
18360;SDS011;9308;48.550;9.108;2022-08-21T15:24:40;3.60;;;3.30;;
18360;SDS011;9308;48.550;9.108;2022-08-21T15:27:06;4.03;;;3.63;;
18360;SDS011;9308;48.550;9.108;2022-08-21T15:29:33;4.27;;;3.87;;
18360;SDS011;9308;48.550;9.108;2022-08-21T15:32:00;3.10;;;2.90;;
18360;SDS011;9308;48.550;9.108;2022-08-21T15:34:28;3.90;;;3.53;;
18360;SDS011;9308;48.550;9.108;2022-08-21T15:36:56;3.80;;;3.50;;
18360;SDS011;9308;48.550;9.108;2022-08-21T15:39:22;4.77;;;3.20;;
18360;SDS011;9308;48.550;9.108;2022-08-21T15:41:49;3.17;;;2.97;;
18360;SDS011;9308;48.550;9.108;2022-08-21T15:44:14;3.80;;;3.40;;
18360;SDS011;9308;48.550;9.108;2022-08-21T15:46:41;3.27;;;2.97;;
18360;SDS011;9308;48.550;9.108;2022-08-21T15:49:06;3.90;;;3.37;;
18360;SDS011;9308;48.550;9.108;2022-08-21T15:51:32;3.27;;;2.97;;
18360;SDS011;9308;48.550;9.108;2022-08-21T15:53:58;3.47;;;3.17;;
18360;SDS011;9308;48.550;9.108;2022-08-21T15:56:24;3.47;;;3.23;;
18360;SDS011;9308;48.550;9.108;2022-08-21T15:58:53;3.40;;;3.10;;
18360;SDS011;9308;48.550;9.108;2022-08-21T16:01:25;3.97;;;3.67;;
18360;SDS011;9308;48.550;9.108;2022-08-21T16:03:52;3.53;;;3.33;;
18360;SDS011;9308;48.550;9.108;2022-08-21T16:06:18;4.30;;;3.23;;
18360;SDS011;9308;48.550;9.108;2022-08-21T16:08:44;3.20;;;2.90;;
18360;SDS011;9308;48.550;9.108;2022-08-21T16:11:10;3.50;;;3.20;;
18360;SDS011;9308;48.550;9.108;2022-08-21T16:13:39;3.17;;;2.87;;
18360;SDS011;9308;48.550;9.108;2022-08-21T16:16:08;2.93;;;2.73;;
18360;SDS011;9308;48.550;9.108;2022-08-21T16:18:38;3.50;;;3.20;;
18360;SDS011;9308;48.550;9.108;2022-08-21T16:21:04;3.60;;;3.30;;